Airfield :
LOGIN :

Register | Disclaimer

   EN    FR    IT 

 










Legend :    VFR   Marginal VFR   IFR   Intensive IFR   Very Intensive IFR
Visi :
Ceiling :
>= 8 km
>= 3000ft
5 to 8 km
1000 to 3000 ft
1500m to 5 km
500 to 1000 ft
800 to 1500m
200 to 500 ft
< 800m
< 200 ft
Symbols :   Thunderstorms  Fog  Heavy snow  Heavy precipitations  Wind > 20 kt
SIGMETs :     Misc.  Thunderstorms  Icing  Turbulence  Mountain Waves  Volcanic Ashes






- Airport Elevation : 154 ft
- IATA code : SZZ


EPSC - Szczecin Goleniow

CURRENT METAR :
  • 130530Z 12012KT 8000 NSC M00/M02 Q0991

EXPIRED METARs :
  • 130500Z 12009KT 8000 NSC M00/M02 Q0991
  • 130430Z 13010KT 8000 NSC 00/M01 Q0992
  • 130400Z 13010KT 9000 NSC M00/M02 Q0992
  • 130330Z 12012KT 9000 FEW009 M00/M01 Q0993
  • 130300Z 13012KT 9999 FEW009 00/M01 Q0993

TAF TAF EPSC
Valid from the 13 at 06:00 until the 14 at 06:00 UTC


130530Z 1306/1406 13010KT 8000 NSC
TEMPO 1308/1318 BKN012
PROB30
TEMPO 1309/1312 BKN009
BECMG 1400/1402 BKN010
TEMPO 1402/1406 4000 -RA BR BKN004



MET'MAP, your aeronautical weather chart ! - Copyright ORBIFLY December 2007 - Disclaimer

ORBIFLY MET'MAP TEAM :

Programming & Development : Alexandra Zaïnal
Concept & original design : Baudouin d'Aumeries
Assistance for programming : Marc-Olivier Méhu
Technical & hardware support : Manuel Goepfert

Contact : metmap@orbifly.com




SOURCES & CREDITS :

   NOAA